Time;durP1;ratioP1;P1;durP2;ratioP2;P2;SDS_P1;SDS_P2;PMS_P1;PMS_P2;Temp;Humidity;BMP_temperature;BMP_pressure;BME280_temperature;BME280_humidity;BME280_pressure;Samples;Min_cycle;Max_cycle;Signal;HPM_P1;HPM_P2
2021/05/16 00:00:32;;;;;;;;;35.00;30.75;;;;;12.43;100.00;98809.78;3578254;40;14096;-63
2021/05/16 00:02:59;;;;;;;;;31.00;28.00;;;;;12.40;100.00;98810.03;3577922;40;14068;-63
2021/05/16 00:05:29;;;;;;;;;37.75;32.50;;;;;12.19;100.00;98806.41;3578089;40;14566;-63
2021/05/16 00:07:57;;;;;;;;;40.00;34.00;;;;;12.32;100.00;98807.09;3578299;40;14093;-63
2021/05/16 00:10:27;;;;;;;;;39.75;35.75;;;;;12.32;100.00;98809.78;3578338;40;11247;-63
2021/05/16 00:12:57;;;;;;;;;40.25;35.00;;;;;12.29;100.00;98813.59;3585336;40;14293;-63
2021/05/16 00:15:27;;;;;;;;;37.00;35.00;;;;;12.19;100.00;98811.78;3578018;40;10280;-63
2021/05/16 00:17:56;;;;;;;;;39.33;35.67;;;;;12.00;100.00;98813.28;3578410;40;10489;-63
2021/05/16 00:20:29;;;;;;;;;42.33;36.00;;;;;11.98;100.00;98814.41;3577968;40;10590;-63
2021/05/16 00:22:57;;;;;;;;;39.00;34.67;;;;;11.95;100.00;98815.50;3578329;40;10633;-63
2021/05/16 00:25:26;;;;;;;;;32.25;32.25;;;;;12.05;100.00;98805.69;3585300;40;10891;-63
2021/05/16 00:27:54;;;;;;;;;40.33;35.67;;;;;12.07;100.00;98802.91;3577823;40;10527;-63
2021/05/16 00:30:27;;;;;;;;;45.33;35.33;;;;;12.10;100.00;98804.47;3578074;40;10451;-62
2021/05/16 00:32:56;;;;;;;;;42.00;36.33;;;;;12.11;100.00;98803.50;3578651;40;10294;-62
2021/05/16 00:35:29;;;;;;;;;30.75;28.50;;;;;12.00;100.00;98799.84;3578330;40;10825;-62
2021/05/16 00:37:58;;;;;;;;;25.50;25.50;;;;;12.00;100.00;98796.31;3585671;40;14045;-62
2021/05/16 00:40:26;;;;;;;;;32.00;26.25;;;;;12.01;100.00;98798.88;3577904;40;14105;-63
2021/05/16 00:42:53;;;;;;;;;27.00;22.25;;;;;11.65;100.00;98792.78;3577620;40;14694;-63
2021/05/16 00:45:25;;;;;;;;;23.25;21.75;;;;;11.48;100.00;98790.59;3578447;40;14258;-63
2021/05/16 00:48:03;;;;;;;;;22.25;21.00;;;;;11.52;100.00;98797.41;3577557;40;14057;-63
2021/05/16 00:50:45;;;;;;;;;24.50;20.50;;;;;11.77;100.00;98800.81;3577670;40;14102;-62
2021/05/16 00:53:12;;;;;;;;;22.75;20.25;;;;;11.85;100.00;98788.47;3577594;40;14089;-63
2021/05/16 00:55:40;;;;;;;;;25.25;24.75;;;;;11.51;100.00;98790.34;3577639;40;14067;-63
2021/05/16 00:58:08;;;;;;;;;24.50;20.00;;;;;11.40;100.00;98783.13;3577997;40;14049;-63
2021/05/16 01:00:40;;;;;;;;;25.25;20.00;;;;;11.55;100.00;98786.41;3577923;40;14111;-63
2021/05/16 01:03:09;;;;;;;;;29.00;25.00;;;;;11.48;100.00;98779.84;3578021;40;14048;-62
2021/05/16 01:05:41;;;;;;;;;28.50;25.00;;;;;11.43;100.00;98788.28;3577969;40;14097;-62
2021/05/16 01:08:11;;;;;;;;;29.50;24.75;;;;;11.14;100.00;98787.03;3578047;40;14058;-63
2021/05/16 01:10:39;;;;;;;;;28.25;23.25;;;;;11.42;100.00;98788.38;3577475;40;14079;-63
2021/05/16 01:13:09;;;;;;;;;24.25;23.00;;;;;11.26;100.00;98782.50;3578159;40;14064;-62
2021/05/16 01:15:40;;;;;;;;;31.25;26.75;;;;;11.10;100.00;98778.34;3577688;40;14582;-62
2021/05/16 01:18:08;;;;;;;;;23.25;23.00;;;;;11.14;100.00;98776.28;3585028;40;10776;-63
2021/05/16 01:20:41;;;;;;;;;25.00;24.00;;;;;11.15;100.00;98773.47;3577757;40;14138;-63
2021/05/16 01:23:13;;;;;;;;;30.00;26.00;;;;;11.15;100.00;98769.94;3577886;40;14196;-63
2021/05/16 01:25:44;;;;;;;;;31.67;29.00;;;;;11.23;100.00;98772.00;3577875;40;14076;-63
2021/05/16 01:28:14;;;;;;;;;36.00;31.67;;;;;11.11;100.00;98771.13;3578013;40;10464;-63
2021/05/16 01:30:44;;;;;;;;;27.50;24.00;;;;;11.08;100.00;98782.97;3585141;40;10718;-63
2021/05/16 01:33:13;;;;;;;;;34.67;26.67;;;;;11.11;100.00;98776.50;3577921;40;10317;-63
2021/05/16 01:35:41;;;;;;;;;18.33;18.33;;;;;11.23;100.00;98772.00;3577334;40;10455;-63
2021/05/16 01:38:08;;;;;;;;;29.33;25.67;;;;;11.12;100.00;98773.72;3577742;40;10407;-63
2021/05/16 01:40:38;;;;;;;;;28.75;24.25;;;;;11.12;100.00;98772.84;3577654;40;10797;-62
2021/05/16 01:43:14;;;;;;;;;42.67;32.00;;;;;11.15;100.00;98767.25;3577820;40;10271;-62
2021/05/16 01:45:43;;;;;;;;;38.00;34.00;;;;;11.48;100.00;98763.72;3577805;40;10219;-62
2021/05/16 01:48:10;;;;;;;;;34.67;31.33;;;;;11.43;100.00;98768.59;3577781;40;10588;-62
2021/05/16 01:50:39;;;;;;;;;40.33;31.67;;;;;11.39;100.00;98759.06;3578249;40;11124;-62
2021/05/16 01:53:09;;;;;;;;;30.75;30.25;;;;;11.41;100.00;98757.13;3578894;40;10737;-63
2021/05/16 01:55:37;;;;;;;;;35.50;32.00;;;;;11.19;100.00;98756.13;3578964;40;14164;-62
2021/05/16 01:58:06;;;;;;;;;30.33;30.00;;;;;11.31;100.00;98756.13;3579279;40;10394;-62
2021/05/16 02:00:40;;;;;;;;;59.33;38.67;;;;;11.05;100.00;98753.66;3578725;40;9824;-62
2021/05/16 02:03:08;;;;;;;;;40.67;33.00;;;;;11.02;100.00;98753.91;3578407;40;9957;-62
2021/05/16 02:05:35;;;;;;;;;45.33;36.00;;;;;11.04;100.00;98751.97;3579258;40;9821;-62
2021/05/16 02:08:05;;;;;;;;;50.33;35.33;;;;;11.20;100.00;98748.94;3577700;40;10005;-62
2021/05/16 02:10:33;;;;;;;;;41.33;36.00;;;;;11.09;100.00;98746.25;3578542;40;10493;-62
2021/05/16 02:13:00;;;;;;;;;46.33;35.67;;;;;10.98;100.00;98745.25;3578587;40;10009;-62
2021/05/16 02:15:28;;;;;;;;;41.00;34.33;;;;;11.08;100.00;98744.50;3578570;40;10065;-62
2021/05/16 02:17:56;;;;;;;;;41.00;29.33;;;;;11.13;100.00;98748.53;3578486;40;10592;-62
2021/05/16 02:20:24;;;;;;;;;41.67;34.00;;;;;10.93;100.00;98746.59;3579092;40;9811;-62
2021/05/16 02:22:51;;;;;;;;;40.67;35.00;;;;;11.01;100.00;98746.00;3579066;40;10040;-63
2021/05/16 02:25:19;;;;;;;;;34.33;32.67;;;;;11.06;100.00;98741.09;3577802;40;10612;-64
2021/05/16 02:27:47;;;;;;;;;37.00;35.33;;;;;11.15;100.00;98735.84;3579073;40;9967;-62
2021/05/16 02:30:17;;;;;;;;;37.67;31.33;;;;;10.90;100.00;98741.44;3586432;40;10130;-63
2021/05/16 02:32:46;;;;;;;;;44.67;36.33;;;;;11.16;100.00;98734.00;3578383;40;9892;-63
2021/05/16 02:35:14;;;;;;;;;46.00;37.00;;;;;10.90;100.00;98730.69;3579232;40;9817;-63
2021/05/16 02:37:41;;;;;;;;;43.67;38.00;;;;;11.06;100.00;98738.41;3578859;40;9914;-62
2021/05/16 02:40:10;;;;;;;;;47.67;36.33;;;;;11.05;100.00;98736.69;3578723;40;9903;-62
2021/05/16 02:42:39;;;;;;;;;45.67;36.00;;;;;11.15;100.00;98730.47;3578557;40;10323;-63
2021/05/16 02:45:07;;;;;;;;;39.67;35.67;;;;;11.15;100.00;98735.84;3578869;40;9895;-63
2021/05/16 02:47:35;;;;;;;;;41.67;35.00;;;;;11.10;100.00;98729.13;3578331;40;10400;-63
2021/05/16 02:50:05;;;;;;;;;42.67;34.00;;;;;11.01;100.00;98736.09;3579302;40;10162;-63
2021/05/16 02:52:33;;;;;;;;;40.33;30.67;;;;;10.94;100.00;98722.28;3578679;40;10083;-63
2021/05/16 02:55:00;;;;;;;;;41.33;36.00;;;;;10.96;100.00;98717.66;3578541;40;10343;-62
2021/05/16 02:57:27;;;;;;;;;38.33;31.33;;;;;11.10;100.00;98715.72;3578922;40;10414;-62
2021/05/16 02:59:55;;;;;;;;;36.33;34.33;;;;;11.08;100.00;98715.81;3578166;40;10920;-62
2021/05/16 03:02:22;;;;;;;;;40.67;35.33;;;;;11.18;100.00;98715.94;3577437;40;10268;-62
2021/05/16 03:04:50;;;;;;;;;40.00;35.00;;;;;11.13;100.00;98708.25;3578743;40;10293;-62
2021/05/16 03:07:17;;;;;;;;;29.67;29.00;;;;;11.09;100.00;98716.69;3578846;40;10596;-62
2021/05/16 03:09:45;;;;;;;;;33.00;29.00;;;;;11.14;100.00;98718.03;3578754;40;10145;-62
2021/05/16 03:12:14;;;;;;;;;38.67;35.67;;;;;10.88;100.00;98712.03;3578583;40;10418;-61
2021/05/16 03:14:41;;;;;;;;;34.50;31.00;;;;;10.86;100.00;98708.59;3578400;40;10897;-62
2021/05/16 03:17:08;;;;;;;;;33.67;30.67;;;;;10.95;100.00;98707.91;3578185;40;10280;-61
2021/05/16 03:19:36;;;;;;;;;36.67;32.00;;;;;10.85;100.00;98700.66;3578373;40;10585;-62
2021/05/16 03:22:04;;;;;;;;;34.00;34.00;;;;;10.62;100.00;98705.16;3578552;40;10008;-62
2021/05/16 03:24:32;;;;;;;;;37.00;34.00;;;;;10.60;100.00;98702.59;3578188;40;9997;-61
2021/05/16 03:26:59;;;;;;;;;35.00;33.00;;;;;10.57;100.00;98708.19;3578680;40;10462;-61
2021/05/16 03:29:26;;;;;;;;;33.33;30.33;;;;;10.45;100.00;98710.00;3585997;40;9900;-61
2021/05/16 03:31:53;;;;;;;;;41.33;34.33;;;;;10.72;100.00;98715.06;3586378;40;9892;-61
2021/05/16 03:34:21;;;;;;;;;44.00;34.67;;;;;10.76;100.00;98711.16;3578189;40;9968;-62
2021/05/16 03:36:49;;;;;;;;;31.33;28.00;;;;;10.80;100.00;98713.63;3578637;40;10066;-61
2021/05/16 03:39:16;;;;;;;;;32.67;29.33;;;;;11.06;100.00;98709.72;3578136;40;9988;-61
2021/05/16 03:41:44;;;;;;;;;30.67;29.00;;;;;10.91;100.00;98711.78;3578182;40;10283;-62
2021/05/16 03:44:11;;;;;;;;;46.67;36.00;;;;;10.79;100.00;98712.72;3578577;40;10368;-62
2021/05/16 03:46:38;;;;;;;;;42.33;35.67;;;;;10.72;100.00;98717.75;3578605;40;10192;-61
2021/05/16 03:49:06;;;;;;;;;43.33;37.33;;;;;10.66;100.00;98718.19;3578546;40;9993;-62
2021/05/16 03:51:33;;;;;;;;;42.67;33.67;;;;;10.88;100.00;98725.47;3578274;40;10026;-62
2021/05/16 03:54:01;;;;;;;;;43.33;36.33;;;;;10.90;100.00;98725.31;3578358;40;9811;-62
2021/05/16 03:56:28;;;;;;;;;42.33;33.33;;;;;11.09;100.00;98735.50;3578041;40;9902;-62
2021/05/16 03:58:55;;;;;;;;;39.00;35.00;;;;;11.15;100.00;98730.47;3578029;40;9914;-62
2021/05/16 04:01:23;;;;;;;;;52.33;39.00;;;;;11.11;100.00;98729.03;3578330;40;9802;-62
2021/05/16 04:03:50;;;;;;;;;40.00;31.67;;;;;11.01;100.00;98735.25;3578110;40;9869;-62
2021/05/16 04:06:17;;;;;;;;;44.67;36.33;;;;;11.24;100.00;98738.78;3578315;40;10001;-62
2021/05/16 04:08:44;;;;;;;;;49.00;38.67;;;;;11.31;100.00;98734.63;3578056;40;10036;-61
2021/05/16 04:11:12;;;;;;;;;52.33;40.33;;;;;11.17;100.00;98738.44;3578367;40;9794;-62
2021/05/16 04:13:40;;;;;;;;;43.33;37.00;;;;;11.30;100.00;98738.31;3577587;40;10073;-62
2021/05/16 04:16:07;;;;;;;;;40.00;36.00;;;;;11.40;100.00;98734.75;3578171;40;10488;-62
2021/05/16 04:18:34;;;;;;;;;34.00;31.00;;;;;11.40;100.00;98745.50;3578421;40;10070;-62
2021/05/16 04:21:03;;;;;;;;;38.33;32.00;;;;;11.21;100.00;98740.72;3578235;40;10444;-62
2021/05/16 04:23:31;;;;;;;;;40.67;37.33;;;;;11.09;100.00;98740.88;3577905;40;10597;-62
2021/05/16 04:25:58;;;;;;;;;42.00;35.33;;;;;11.45;100.00;98741.59;3577570;40;10128;-62
2021/05/16 04:28:26;;;;;;;;;36.33;34.67;;;;;11.39;100.00;98748.31;3578230;40;10048;-62
2021/05/16 04:30:53;;;;;;;;;45.00;37.33;;;;;11.50;100.00;98750.97;3577886;40;10051;-62
2021/05/16 04:33:21;;;;;;;;;38.00;32.00;;;;;11.52;100.00;98749.03;3578157;40;10921;-62
2021/05/16 04:35:48;;;;;;;;;34.00;31.33;;;;;11.25;100.00;98743.19;3578067;40;11179;-62
2021/05/16 04:38:16;;;;;;;;;40.00;33.00;;;;;11.35;100.00;98753.09;3578059;40;10579;-62
2021/05/16 04:40:45;;;;;;;;;31.00;27.00;;;;;11.32;100.00;98752.47;3578221;40;10829;-62
2021/05/16 04:43:13;;;;;;;;;43.33;35.67;;;;;11.10;100.00;98742.56;3577810;40;10351;-62
2021/05/16 04:45:41;;;;;;;;;37.33;31.33;;;;;11.34;100.00;98751.34;3577769;40;10670;-62
2021/05/16 04:48:08;;;;;;;;;37.67;35.33;;;;;11.58;100.00;98751.22;3577855;40;10115;-62
2021/05/16 04:50:36;;;;;;;;;45.67;37.67;;;;;11.54;100.00;98757.84;3578137;40;10410;-62
2021/05/16 04:53:03;;;;;;;;;44.00;37.00;;;;;11.55;100.00;98754.16;3578242;40;10478;-62
2021/05/16 04:55:30;;;;;;;;;43.33;36.00;;;;;11.50;100.00;98760.88;3578164;40;10194;-62
2021/05/16 04:57:57;;;;;;;;;51.33;38.00;;;;;11.55;100.00;98759.53;3577575;40;10618;-62
2021/05/16 05:00:25;;;;;;;;;45.00;34.33;;;;;11.65;100.00;98776.63;3578105;40;10856;-62
2021/05/16 05:02:52;;;;;;;;;37.67;34.00;;;;;11.64;100.00;98774.94;3577678;40;10421;-62
2021/05/16 05:05:20;;;;;;;;;44.67;36.00;;;;;11.79;100.00;98780.03;3577891;40;10540;-62
2021/05/16 05:07:47;;;;;;;;;42.67;37.00;;;;;11.86;100.00;98778.59;3578135;40;10405;-61
2021/05/16 05:10:15;;;;;;;;;41.33;37.00;;;;;11.80;100.00;98785.31;3578665;40;11016;-62
2021/05/16 05:12:50;;;;;;;;;50.00;39.00;;;;;11.86;100.00;98794.75;3578756;40;10178;-60
2021/05/16 05:15:18;;;;;;;;;36.50;33.00;;;;;11.89;100.00;98794.50;3578065;40;11235;-61
2021/05/16 05:17:45;;;;;;;;;44.00;34.50;;;;;12.21;100.00;98801.75;3577627;40;10832;-61
2021/05/16 05:20:12;;;;;;;;;48.00;37.50;;;;;12.07;100.00;98803.75;3577791;40;14357;-60
2021/05/16 05:22:40;;;;;;;;;32.25;29.50;;;;;12.19;100.00;98806.41;3577676;40;10854;-60
2021/05/16 05:25:09;;;;;;;;;43.75;36.75;;;;;12.17;100.00;98811.09;3577035;40;14274;-61
2021/05/16 05:27:42;;;;;;;;;35.00;32.25;;;;;12.21;100.00;98816.06;3577928;40;10718;-60
2021/05/16 05:30:13;;;;;;;;;43.50;36.75;;;;;12.19;100.00;98814.47;3577877;40;14098;-61
2021/05/16 05:32:42;;;;;;;;;44.00;34.00;;;;;12.24;100.00;98818.53;3577038;40;10730;-60
2021/05/16 05:35:10;;;;;;;;;43.25;36.75;;;;;12.17;100.00;98809.25;3577350;40;14105;-60
2021/05/16 05:37:37;;;;;;;;;38.75;34.25;;;;;12.24;100.00;98809.56;3577459;40;11305;-59
2021/05/16 05:40:06;;;;;;;;;27.75;27.75;;;;;12.30;100.00;98798.31;3577252;40;14103;-60
2021/05/16 05:42:34;;;;;;;;;35.50;28.00;;;;;12.35;100.00;98806.00;3577451;40;14161;-61
2021/05/16 05:45:02;;;;;;;;;32.25;28.00;;;;;12.22;100.00;98808.88;3577119;40;14091;-61
2021/05/16 05:47:29;;;;;;;;;35.25;30.00;;;;;12.22;100.00;98811.56;3576880;40;14127;-60
2021/05/16 05:49:56;;;;;;;;;30.50;26.75;;;;;12.23;100.00;98808.72;3577612;40;14105;-61
2021/05/16 05:52:24;;;;;;;;;26.00;23.50;;;;;12.40;100.00;98814.53;3577517;40;14095;-60
2021/05/16 05:54:51;;;;;;;;;30.50;26.25;;;;;12.35;100.00;98812.25;3577189;40;14052;-60
2021/05/16 05:57:19;;;;;;;;;24.50;20.00;;;;;12.34;100.00;98807.84;3577354;40;14101;-60
2021/05/16 05:59:48;;;;;;;;;23.00;22.25;;;;;12.32;100.00;98817.88;3577043;40;14280;-61
2021/05/16 06:02:15;;;;;;;;;27.25;22.25;;;;;12.27;100.00;98812.03;3576967;40;14109;-61
2021/05/16 06:04:43;;;;;;;;;21.50;19.50;;;;;12.42;100.00;98809.88;3577645;40;14120;-61
2021/05/16 06:07:10;;;;;;;;;24.00;20.25;;;;;12.61;100.00;98817.28;3576955;40;14256;-61
2021/05/16 06:09:38;;;;;;;;;24.25;21.75;;;;;12.52;100.00;98819.75;3577265;40;14300;-61
2021/05/16 06:12:07;;;;;;;;;27.00;22.00;;;;;12.60;100.00;98831.75;3577070;40;14066;-61
2021/05/16 06:14:34;;;;;;;;;19.50;16.50;;;;;12.60;100.00;98826.34;3584583;40;14101;-60
2021/05/16 06:17:02;;;;;;;;;19.25;16.50;;;;;12.73;100.00;98832.41;3576241;40;14135;-61
2021/05/16 06:19:30;;;;;;;;;18.25;18.25;;;;;12.64;100.00;98836.75;3577334;40;14074;-60
2021/05/16 06:21:57;;;;;;;;;25.25;20.75;;;;;12.70;100.00;98843.44;3576729;40;14198;-61
2021/05/16 06:24:25;;;;;;;;;18.50;18.25;;;;;12.69;100.00;98841.72;3576634;40;14090;-61
2021/05/16 06:26:52;;;;;;;;;21.25;16.25;;;;;12.90;100.00;98845.31;3576924;40;14160;-61
2021/05/16 06:29:20;;;;;;;;;17.00;16.25;;;;;12.87;100.00;98840.16;3576949;40;14605;-61
2021/05/16 06:31:47;;;;;;;;;20.00;17.75;;;;;13.02;100.00;98834.47;3577260;40;14571;-61
2021/05/16 06:34:14;;;;;;;;;22.75;20.75;;;;;13.07;100.00;98835.78;3577243;40;14054;-61
2021/05/16 06:36:42;;;;;;;;;22.50;20.75;;;;;13.05;100.00;98839.59;3577996;40;14058;-60
2021/05/16 06:39:09;;;;;;;;;22.75;20.75;;;;;13.09;100.00;98835.69;3578384;40;14069;-61
2021/05/16 06:41:36;;;;;;;;;23.00;19.50;;;;;13.09;100.00;98833.84;3578830;40;14083;-61
2021/05/16 06:44:04;;;;;;;;;24.00;18.50;;;;;13.16;100.00;98842.22;3578442;40;14592;-61
2021/05/16 06:46:31;;;;;;;;;25.75;22.25;;;;;13.15;100.00;98843.22;3578741;40;14266;-61
2021/05/16 06:48:58;;;;;;;;;29.00;25.00;;;;;13.15;100.00;98835.13;3578787;40;14082;-61
2021/05/16 06:51:26;;;;;;;;;27.25;25.50;;;;;13.28;100.00;98835.81;3578386;40;14075;-61
2021/05/16 06:53:59;;;;;;;;;23.25;23.00;;;;;13.26;100.00;98834.22;3578217;40;14044;-61
2021/05/16 06:56:26;;;;;;;;;27.25;23.25;;;;;13.25;100.00;98830.66;3578427;40;14218;-60
2021/05/16 06:58:53;;;;;;;;;24.25;21.50;;;;;13.29;100.00;98837.53;3578268;40;14082;-61
2021/05/16 07:01:21;;;;;;;;;26.50;22.75;;;;;13.31;100.00;98832.84;3578685;40;14066;-61
2021/05/16 07:03:48;;;;;;;;;18.25;17.00;;;;;13.36;100.00;98843.25;3578291;40;14095;-61
2021/05/16 07:06:16;;;;;;;;;29.25;23.75;;;;;13.44;100.00;98839.88;3578627;40;14074;-61
2021/05/16 07:08:43;;;;;;;;;22.00;20.25;;;;;13.51;100.00;98844.63;3578694;40;14075;-61
2021/05/16 07:11:11;;;;;;;;;22.50;19.75;;;;;13.52;100.00;98840.06;3577981;40;14289;-61
2021/05/16 07:13:38;;;;;;;;;26.00;22.50;;;;;13.68;99.15;98829.63;3578171;40;14241;-61
2021/05/16 07:16:06;;;;;;;;;23.75;22.50;;;;;13.76;99.70;98843.31;3578216;40;14087;-62
2021/05/16 07:18:33;;;;;;;;;25.25;21.00;;;;;13.84;99.67;98840.78;3578210;40;14587;-61
2021/05/16 07:21:01;;;;;;;;;28.75;22.00;;;;;13.72;99.79;98849.97;3578487;40;14674;-62
2021/05/16 07:23:29;;;;;;;;;21.75;21.25;;;;;13.55;99.29;98845.19;3578093;40;14109;-61
2021/05/16 07:25:58;;;;;;;;;26.50;22.75;;;;;13.46;99.51;98846.00;3578151;40;14088;-62
2021/05/16 07:28:25;;;;;;;;;25.75;23.00;;;;;13.56;100.00;98842.38;3578190;40;14068;-62
2021/05/16 07:30:53;;;;;;;;;24.50;19.75;;;;;13.67;99.53;98848.69;3578496;40;14088;-61
2021/05/16 07:33:20;;;;;;;;;24.75;21.75;;;;;13.57;98.94;98843.22;3577932;40;14056;-62
2021/05/16 07:35:48;;;;;;;;;25.25;23.00;;;;;13.51;99.56;98855.41;3585334;40;14107;-61
2021/05/16 07:38:15;;;;;;;;;22.50;19.75;;;;;13.55;99.76;98847.88;3577923;40;14095;-61
2021/05/16 07:40:42;;;;;;;;;21.75;19.00;;;;;13.67;99.26;98849.53;3578683;40;14109;-61
2021/05/16 07:43:11;;;;;;;;;25.75;22.50;;;;;13.71;98.71;98853.63;3578059;40;14679;-62
2021/05/16 07:45:38;;;;;;;;;22.25;19.25;;;;;13.64;98.57;98848.91;3578092;40;14661;-61
2021/05/16 07:48:06;;;;;;;;;20.25;19.75;;;;;13.79;98.57;98855.66;3577559;40;14594;-61
2021/05/16 07:50:35;;;;;;;;;23.75;21.25;;;;;13.84;98.84;98853.41;3578448;40;14102;-61
2021/05/16 07:53:04;;;;;;;;;25.25;20.75;;;;;13.79;98.41;98842.19;3578800;40;14080;-61
2021/05/16 07:55:31;;;;;;;;;25.25;18.00;;;;;13.86;98.01;98854.16;3577140;40;14052;-60
2021/05/16 07:57:59;;;;;;;;;18.00;16.25;;;;;13.68;97.14;98845.81;3577869;40;14098;-61
2021/05/16 08:00:26;;;;;;;;;17.25;17.25;;;;;13.67;95.72;98843.28;3578392;40;14205;-61
2021/05/16 08:02:53;;;;;;;;;16.00;15.00;;;;;13.87;93.86;98838.81;3577698;40;14061;-62
2021/05/16 08:05:21;;;;;;;;;19.25;16.00;;;;;13.75;94.83;98833.50;3585410;40;14591;-62
2021/05/16 08:07:49;;;;;;;;;14.25;13.00;;;;;13.72;94.53;98835.63;3578247;40;14079;-61
2021/05/16 08:10:44;;;;;;;;;17.50;13.50;;;;;13.84;95.17;98829.97;3577859;40;14074;-61
2021/05/16 08:13:12;;;;;;;;;19.50;17.00;;;;;13.83;93.03;98827.44;3577079;40;14055;-60
2021/05/16 08:15:40;;;;;;;;;19.00;16.75;;;;;14.08;95.23;98826.09;3578333;40;14144;-61
2021/05/16 08:18:09;;;;;;;;;19.25;15.25;;;;;14.01;94.69;98830.34;3577104;40;14069;-61
2021/05/16 08:20:37;;;;;;;;;23.75;19.50;;;;;14.07;93.84;98832.47;3577828;40;14058;-61
2021/05/16 08:23:05;;;;;;;;;18.00;15.75;;;;;14.27;91.10;98820.75;3577768;40;14105;-61
2021/05/16 08:25:34;;;;;;;;;20.00;18.50;;;;;14.41;93.28;98824.03;3577692;40;14047;-60
2021/05/16 08:28:01;;;;;;;;;19.00;16.00;;;;;14.24;92.23;98826.44;3578021;40;14072;-61
2021/05/16 08:30:29;;;;;;;;;19.25;17.25;;;;;14.31;93.27;98825.88;3577752;40;14262;-61
2021/05/16 08:32:56;;;;;;;;;19.25;15.75;;;;;14.30;91.63;98824.13;3576938;40;14059;-61
2021/05/16 08:35:24;;;;;;;;;17.50;14.25;;;;;14.91;89.08;98824.78;3577745;40;14274;-60
2021/05/16 08:37:52;;;;;;;;;15.25;14.50;;;;;15.13;89.88;98830.88;3577697;40;14089;-61
2021/05/16 08:40:21;;;;;;;;;14.50;14.50;;;;;14.87;88.58;98823.34;3578030;40;14791;-61
2021/05/16 08:42:50;;;;;;;;;14.50;13.00;;;;;15.06;89.07;98833.31;3577651;40;14038;-60
2021/05/16 08:45:18;;;;;;;;;13.25;12.25;;;;;15.06;89.80;98833.31;3577656;40;14634;-61
2021/05/16 08:47:48;;;;;;;;;11.50;11.50;;;;;15.02;89.49;98826.50;3578236;40;14068;-61
2021/05/16 08:50:18;;;;;;;;;9.75;8.75;;;;;14.99;87.39;98826.78;3577675;40;14087;-61
2021/05/16 08:52:46;;;;;;;;;12.00;12.00;;;;;15.24;85.54;98822.59;3577720;40;13993;-62
2021/05/16 08:55:15;;;;;;;;;13.50;13.50;;;;;14.91;87.74;98818.53;3577498;40;14030;-60
2021/05/16 08:57:45;;;;;;;;;10.50;10.50;;;;;14.86;88.14;98810.84;3577688;40;14134;-61
2021/05/16 09:00:14;;;;;;;;;15.50;14.00;;;;;15.12;88.94;98812.97;3577784;40;14067;-60
2021/05/16 09:03:14;;;;;;;;;13.50;12.50;;;;;15.03;86.65;98816.53;3577972;40;14068;-60
2021/05/16 09:05:44;;;;;;;;;11.00;11.00;;;;;15.39;86.32;98812.19;3582889;40;14053;-61
2021/05/16 09:08:18;;;;;;;;;10.00;9.00;;;;;15.71;84.45;98813.69;3582268;40;14522;-61
2021/05/16 09:10:48;;;;;;;;;11.00;11.00;;;;;15.96;84.87;98821.13;3589393;40;14017;-61
2021/05/16 09:13:26;;;;;;;;;10.50;10.50;;;;;15.74;84.37;98826.91;3578740;40;14182;-57
2021/05/16 09:16:03;;;;;;;;;10.00;10.00;;;;;15.67;84.39;98829.34;3578183;40;13960;-60
2021/05/16 09:18:51;;;;;;;;;12.25;11.00;;;;;15.57;85.36;98823.94;3577765;40;14613;-61
2021/05/16 09:21:31;;;;;;;;;11.00;11.00;;;;;15.09;86.12;98827.63;3588565;40;13941;-60
2021/05/16 09:24:06;;;;;;;;;11.25;10.00;;;;;15.42;85.65;98833.53;3583942;40;14022;-52
2021/05/16 09:26:34;;;;;;;;;10.25;8.50;;;;;15.54;84.50;98826.94;3581172;40;14036;-51
2021/05/16 09:29:27;;;;;;;;;6.00;5.00;;;;;15.54;83.11;98835.06;3582404;40;14018;-52
2021/05/16 09:31:57;;;;;;;;;8.25;8.25;;;;;15.75;82.18;98829.47;3589868;40;13886;-49
2021/05/16 09:34:25;;;;;;;;;8.50;8.00;;;;;16.25;81.75;98830.94;3581804;40;14488;-52
2021/05/16 09:36:54;;;;;;;;;9.25;8.25;;;;;16.26;81.35;98827.22;3580363;40;13921;-51
2021/05/16 09:39:26;;;;;;;;;8.25;7.25;;;;;15.98;82.61;98818.25;3581720;40;13967;-50
2021/05/16 09:42:09;;;;;;;;;8.50;8.00;;;;;15.96;81.16;98828.41;3583265;40;14435;-51
2021/05/16 09:44:48;;;;;;;;;9.00;8.00;;;;;15.67;80.99;98823.06;3594196;40;14453;-51
2021/05/16 09:47:27;;;;;;;;;8.00;8.00;;;;;15.76;82.10;98819.50;3587360;40;14104;-53
2021/05/16 09:50:00;;;;;;;;;7.25;7.00;;;;;15.84;80.11;98814.19;3588115;40;14125;-54
2021/05/16 09:52:31;;;;;;;;;6.75;6.75;;;;;16.35;81.16;98820.91;3586981;40;13918;-51
2021/05/16 09:55:01;;;;;;;;;6.00;5.00;;;;;16.05;79.59;98821.22;3579500;40;13990;-52
2021/05/16 09:57:41;;;;;;;;;8.00;6.50;;;;;15.86;78.31;98816.75;3581662;40;14080;-51
2021/05/16 10:00:14;;;;;;;;;6.50;5.50;;;;;15.68;80.25;98817.50;3577835;40;14665;-50
2021/05/16 10:02:42;;;;;;;;;7.00;5.00;;;;;16.19;79.46;98820.69;3584633;40;13919;-48
2021/05/16 10:05:14;;;;;;;;;9.25;7.75;;;;;16.51;78.28;98822.06;3587711;40;13919;-51
2021/05/16 10:07:42;;;;;;;;;8.25;5.75;;;;;16.85;76.75;98822.25;3586952;40;14026;-51
2021/05/16 10:11:05;;;;;;;;;8.00;7.00;;;;;17.70;75.02;98827.97;3585415;40;14009;-51
2021/05/16 10:13:37;;;;;;;;;9.75;7.00;;;;;17.67;76.26;98826.44;3580729;40;13924;-52
2021/05/16 10:16:15;;;;;;;;;5.00;5.00;;;;;17.00;76.98;98825.28;3588689;40;13911;-50
2021/05/16 10:18:46;;;;;;;;;7.50;6.00;;;;;16.87;77.91;98822.94;3590631;40;13392;-52
2021/05/16 10:21:14;;;;;;;;;6.00;6.00;;;;;16.72;77.31;98817.22;3588043;40;13954;-47
2021/05/16 10:23:42;;;;;;;;;7.75;7.00;;;;;17.58;74.61;98812.97;3578800;40;13941;-51
2021/05/16 10:26:26;;;;;;;;;9.25;7.50;;;;;18.79;73.13;98813.63;3583009;40;14515;-53
2021/05/16 10:29:50;;;;;;;;;10.25;7.00;;;;;17.58;72.89;98821.97;3581818;40;13263;-49
2021/05/16 10:32:49;;;;;;;;;5.75;5.75;;;;;17.23;76.17;98821.06;3593770;39;13350;-50
2021/05/16 10:35:16;;;;;;;;;9.75;8.00;;;;;17.04;77.50;98821.25;3579621;40;13156;-59
2021/05/16 10:37:56;;;;;;;;;7.50;6.00;;;;;16.81;75.58;98823.59;3581271;40;13166;-59
2021/05/16 10:40:34;;;;;;;;;9.00;8.25;;;;;16.22;76.78;98821.28;3590662;39;13625;-58
2021/05/16 10:43:05;;;;;;;;;8.00;8.00;;;;;15.98;79.17;98826.38;3584459;40;13943;-58
2021/05/16 10:45:39;;;;;;;;;9.00;8.00;;;;;15.89;78.79;98820.00;3580686;40;13971;-56
2021/05/16 10:48:16;;;;;;;;;8.50;8.50;;;;;15.67;79.88;98825.78;3582367;40;13910;-57
2021/05/16 10:50:52;;;;;;;;;10.00;8.00;;;;;15.58;81.31;98828.34;3581909;40;13917;-51
2021/05/16 10:53:43;;;;;;;;;12.00;12.00;;;;;15.32;82.53;98827.28;3581039;40;13922;-59
2021/05/16 10:56:20;;;;;;;;;13.75;13.75;;;;;15.21;82.60;98824.75;3581980;40;14467;-53
2021/05/16 10:58:54;;;;;;;;;13.00;10.00;;;;;15.06;81.77;98833.31;3581982;40;14476;-50
2021/05/16 11:01:36;;;;;;;;;13.00;13.00;;;;;15.05;82.06;98839.72;3579674;40;14010;-52
2021/05/16 11:04:06;;;;;;;;;11.00;10.50;;;;;14.87;84.11;98828.75;3584625;40;14041;-53
2021/05/16 11:06:39;;;;;;;;;14.50;14.00;;;;;14.82;83.61;98831.03;3581189;40;14077;-54
2021/05/16 11:09:09;;;;;;;;;14.00;14.00;;;;;15.02;85.14;98839.16;3581622;40;14021;-51
2021/05/16 11:11:48;;;;;;;;;18.25;15.25;;;;;15.17;86.16;98845.00;3582720;40;14116;-53
2021/05/16 11:14:33;;;;;;;;;11.00;10.75;;;;;14.95;84.30;98851.53;3581517;40;14622;-50
2021/05/16 11:17:07;;;;;;;;;14.50;14.50;;;;;14.90;87.15;98854.66;3585542;40;14032;-51
2021/05/16 11:19:36;;;;;;;;;12.75;9.00;;;;;15.21;84.22;98851.78;3586138;40;14053;-52
2021/05/16 11:22:30;;;;;;;;;20.25;14.25;;;;;15.26;83.51;98849.50;3578679;40;14010;-52
2021/05/16 11:24:57;;;;;;;;;13.75;12.25;;;;;15.45;82.29;98849.47;3580201;40;14052;-53
2021/05/16 11:27:31;;;;;;;;;10.00;8.25;;;;;15.76;79.33;98841.16;3580042;40;14000;-53